createdAt,value
2019-02-26T00:04:54.077Z,2.70
2019-02-26T00:16:39.764Z,3.27
2019-02-26T00:22:18.358Z,2.80
2019-02-26T00:40:10.058Z,2.57
2019-02-26T00:52:15.565Z,1.97
2019-02-26T00:57:21.657Z,2.40
2019-02-26T01:02:24.337Z,2.10
2019-02-26T01:08:18.026Z,2.20
2019-02-26T01:14:18.597Z,2.30
2019-02-26T01:19:24.758Z,2.20
2019-02-26T01:24:30.505Z,1.60
2019-02-26T01:30:08.138Z,2.20
2019-02-26T01:59:50.160Z,2.63
2019-02-26T02:05:54.611Z,3.70
2019-02-26T02:11:40.776Z,3.80
2019-02-26T02:17:24.491Z,3.47
2019-02-26T02:22:56.029Z,2.73
2019-02-26T02:34:36.761Z,3.27
2019-02-26T02:46:16.468Z,2.60
2019-02-26T02:52:15.646Z,4.07
2019-02-26T02:57:34.483Z,3.13
2019-02-26T03:02:58.789Z,2.87
2019-02-26T03:08:35.893Z,2.60
2019-02-26T03:13:45.761Z,3.30
2019-02-26T03:19:32.003Z,2.60
2019-02-26T03:24:59.665Z,2.97
2019-02-26T03:30:44.451Z,2.40
2019-02-26T03:35:53.102Z,2.83
2019-02-26T03:40:58.935Z,2.50
2019-02-26T03:46:04.063Z,2.47
2019-02-26T03:51:10.967Z,3.20
2019-02-26T03:57:06.882Z,2.67
2019-02-26T04:08:13.126Z,4.00
2019-02-26T05:10:57.359Z,5.03
2019-02-26T06:13:31.551Z,5.23
2019-02-26T07:10:15.988Z,5.58
2019-02-26T07:29:14.393Z,5.40
2019-02-26T08:19:37.588Z,4.30
2019-02-26T08:37:51.549Z,5.80
2019-02-26T08:56:28.197Z,6.10
2019-02-26T09:40:34.220Z,5.42
2019-02-26T09:46:41.217Z,6.72
2019-02-26T10:04:08.243Z,4.53
2019-02-26T10:09:21.571Z,6.30
2019-02-26T10:15:05.864Z,4.87
2019-02-26T10:39:18.090Z,5.80
2019-02-26T11:28:45.419Z,6.70
2019-02-26T11:34:16.704Z,10.10
2019-02-26T11:51:45.410Z,5.72
2019-02-26T12:15:09.413Z,7.40
2019-02-26T13:29:17.144Z,6.30
2019-02-26T13:53:08.507Z,6.42
2019-02-26T13:58:14.392Z,7.65
2019-02-26T14:03:24.972Z,8.10
2019-02-26T14:08:30.450Z,9.90
2019-02-26T14:13:36.635Z,8.98
2019-02-26T14:18:53.047Z,7.50
2019-02-26T14:23:56.735Z,8.87
2019-02-26T14:29:15.692Z,10.63
2019-02-26T14:34:22.366Z,8.08
2019-02-26T14:39:32.276Z,9.45
2019-02-26T14:44:39.753Z,8.48
2019-02-26T14:50:22.450Z,8.88
2019-02-26T15:08:53.590Z,7.83
2019-02-26T15:14:22.567Z,9.80
2019-02-26T15:31:37.379Z,7.00
2019-02-26T15:36:43.297Z,8.30
2019-02-26T15:42:10.347Z,8.25
2019-02-26T16:00:17.564Z,10.13
2019-02-26T16:06:22.258Z,8.83
2019-02-26T16:11:57.430Z,10.07
2019-02-26T16:23:20.100Z,13.62
2019-02-26T16:28:51.776Z,13.10
2019-02-26T16:34:26.650Z,14.53
2019-02-26T16:39:32.504Z,15.68
2019-02-26T16:44:58.338Z,14.98
2019-02-26T16:50:32.789Z,14.17
2019-02-26T16:56:26.686Z,10.55
2019-02-26T17:02:11.338Z,10.72
2019-02-26T17:20:32.205Z,11.93
2019-02-26T17:26:17.481Z,9.27
2019-02-26T17:55:23.401Z,12.33
2019-02-26T18:00:39.722Z,13.00
2019-02-26T18:05:55.079Z,16.57
2019-02-26T18:11:05.294Z,17.10
2019-02-26T18:16:34.386Z,17.10
2019-02-26T18:28:16.874Z,13.60
2019-02-26T18:33:59.201Z,14.37
2019-02-26T18:39:03.112Z,9.27
2019-02-26T18:55:32.354Z,15.67
2019-02-26T19:00:35.046Z,23.27
2019-02-26T19:05:39.773Z,20.53
2019-02-26T19:10:54.176Z,13.80
2019-02-26T19:16:12.786Z,20.13
2019-02-26T19:21:30.175Z,22.70
2019-02-26T19:26:57.433Z,23.47
2019-02-26T19:32:25.911Z,23.30
2019-02-26T19:37:38.126Z,26.73
2019-02-26T19:42:43.217Z,26.20
2019-02-26T19:48:02.993Z,18.83
2019-02-26T19:53:19.826Z,16.27
2019-02-26T19:58:33.454Z,17.80
2019-02-26T20:04:01.777Z,38.53
2019-02-26T20:09:22.559Z,18.63
2019-02-26T20:14:34.686Z,21.20
2019-02-26T20:20:07.348Z,40.57
2019-02-26T20:25:57.005Z,19.30
2019-02-26T20:31:11.971Z,23.10
2019-02-26T20:36:24.245Z,24.40
2019-02-26T20:41:44.313Z,29.73
2019-02-26T20:46:51.450Z,16.30
2019-02-26T20:52:06.528Z,19.07
2019-02-26T20:57:28.871Z,19.10
2019-02-26T21:02:41.841Z,17.53
2019-02-26T21:07:49.680Z,16.10
2019-02-26T21:13:03.285Z,17.07
2019-02-26T21:18:08.298Z,18.23
2019-02-26T21:23:12.227Z,18.87
2019-02-26T21:28:27.661Z,20.67
2019-02-26T21:33:37.733Z,16.27
2019-02-26T21:38:42.583Z,19.90
2019-02-26T21:43:50.743Z,22.00
2019-02-26T21:48:55.342Z,17.17
2019-02-26T21:54:40.284Z,19.40
2019-02-26T21:59:49.970Z,25.87
2019-02-26T22:04:49.547Z,19.83
2019-02-26T22:09:53.362Z,22.50
2019-02-26T22:15:04.179Z,18.33
2019-02-26T22:20:26.908Z,19.53
2019-02-26T22:25:36.716Z,18.67
2019-02-26T22:30:40.816Z,24.70
2019-02-26T22:35:52.685Z,24.07
2019-02-26T22:40:59.939Z,17.80
2019-02-26T22:46:16.791Z,22.03
2019-02-26T22:52:00.215Z,18.23
2019-02-26T22:57:07.015Z,19.70
2019-02-26T23:02:13.469Z,16.67
2019-02-26T23:13:21.992Z,17.00
2019-02-26T23:18:35.825Z,17.83
2019-02-26T23:23:39.748Z,16.93
2019-02-26T23:28:44.444Z,18.33
2019-02-26T23:33:49.159Z,18.97
2019-02-26T23:38:54.412Z,18.80
2019-02-26T23:44:01.038Z,19.17
2019-02-26T23:49:05.233Z,14.87
2019-02-26T23:54:09.636Z,19.93
2019-02-26T23:59:20.743Z,18.93
